Higgins, Oklahoma
Current Conditions -  °F | °C
As of 11:53 AM on Thursday 23 Oct 2014 (Local Time) from KMLC Reporting Station
Light Rain Light Rain  
Wind Chill: 16°   Ceiling: 8500
Heat Index: 16°   Visibility: 9mi
Dew Point: 12°   Wind: 3mph
Humidity: 78%   Direction: 180°S
Pressure: 30.19"   Gusts: NA
Location:  34.8806°N, 95.3086°W
Report Text: KMLC 231653Z AUTO 18003KT 9SM -RA SCT065 BKN085 OVC110 16/12 A3019 RMK AO2 RAB16 SLP220 P0001 T01560117
Loading
Personal Weather Stations






























Interactive Weather Map
Tropical Storm Tracking
New forecast layout! Learn more

10-Day Weather Forecast

Advertisements
Track Severe Weather on mobile